Time;durP1;ratioP1;P1;durP2;ratioP2;P2;SDS_P1;SDS_P2;PMS_P1;PMS_P2;Temp;Humidity;BMP_temperature;BMP_pressure;BME280_temperature;BME280_humidity;BME280_pressure;Samples;Min_cycle;Max_cycle;Signal;HPM_P1;HPM_P2
2023/09/18 00:00:42;;;;;;;4.97;4.15;;;19.10;82.40;;;;;;4955825;28;20535;-63
2023/09/18 00:03:08;;;;;;;6.18;4.00;;;19.10;82.60;;;;;;4957836;28;20047;-64
2023/09/18 00:05:34;;;;;;;4.40;4.00;;;19.10;82.70;;;;;;4953789;28;20383;-63
2023/09/18 00:08:02;;;;;;;4.70;4.30;;;19.10;82.60;;;;;;4956485;28;20054;-63
2023/09/18 00:10:31;;;;;;;8.30;4.53;;;19.10;82.60;;;;;;4967172;28;20483;-63
2023/09/18 00:12:57;;;;;;;6.82;4.00;;;19.10;82.70;;;;;;4953830;28;20042;-63
2023/09/18 00:15:23;;;;;;;5.07;4.18;;;19.10;82.70;;;;;;4955070;28;20430;-63
2023/09/18 00:17:51;;;;;;;5.03;4.00;;;19.10;82.70;;;;;;4956344;28;20502;-63
2023/09/18 00:20:18;;;;;;;4.28;3.88;;;19.10;82.90;;;;;;4969081;28;20052;-63
2023/09/18 00:22:44;;;;;;;4.65;4.05;;;19.10;82.70;;;;;;4950380;28;20043;-63
2023/09/18 00:25:09;;;;;;;5.20;4.20;;;19.10;82.70;;;;;;4956568;28;20047;-63
2023/09/18 00:27:36;;;;;;;4.53;4.05;;;19.10;82.80;;;;;;4968995;28;20394;-63
2023/09/18 00:30:03;;;;;;;6.30;3.90;;;19.10;82.70;;;;;;4972379;28;20042;-63
2023/09/18 00:32:28;;;;;;;4.18;3.88;;;19.00;82.70;;;;;;4968906;28;20580;-64
2023/09/18 00:34:54;;;;;;;6.90;3.92;;;19.00;82.70;;;;;;4953962;28;20059;-63
2023/09/18 00:37:20;;;;;;;4.72;4.18;;;19.00;82.80;;;;;;4959595;28;20043;-63
2023/09/18 00:39:45;;;;;;;6.38;3.78;;;19.10;82.90;;;;;;4971720;28;20066;-63
2023/09/18 00:42:13;;;;;;;5.40;3.60;;;19.00;82.90;;;;;;4973767;28;20046;-63
2023/09/18 00:44:40;;;;;;;4.97;3.80;;;19.00;83.10;;;;;;4968921;28;20391;-63
2023/09/18 00:47:07;;;;;;;4.95;3.60;;;18.90;83.30;;;;;;4970405;28;20114;-63
2023/09/18 00:49:34;;;;;;;3.85;3.47;;;19.00;83.40;;;;;;4969917;28;20437;-63
2023/09/18 00:52:00;;;;;;;5.50;3.90;;;19.00;83.40;;;;;;4972552;28;20038;-63
2023/09/18 00:54:26;;;;;;;5.22;3.58;;;19.00;83.60;;;;;;4967540;28;20411;-64
2023/09/18 00:56:54;;;;;;;5.75;3.63;;;19.00;83.60;;;;;;4969084;28;20792;-63
2023/09/18 00:59:21;;;;;;;3.35;3.05;;;19.00;83.50;;;;;;4972419;28;20031;-63
2023/09/18 01:01:50;;;;;;;4.22;3.50;;;19.00;83.30;;;;;;4971342;28;20031;-63
2023/09/18 01:04:17;;;;;;;4.75;3.53;;;19.10;83.40;;;;;;4972421;28;20691;-63
2023/09/18 01:06:42;;;;;;;5.03;3.15;;;19.10;83.30;;;;;;4974311;28;20034;-63
2023/09/18 01:09:12;;;;;;;4.10;3.65;;;19.10;83.30;;;;;;4970986;28;20042;-63
2023/09/18 01:11:52;;;;;;;5.10;4.35;;;19.10;83.40;;;;;;4971848;28;20114;-64
2023/09/18 01:14:29;;;;;;;4.72;4.22;;;19.10;84.50;;;;;;4972489;28;20045;-63
2023/09/18 01:16:57;;;;;;;5.93;4.03;;;19.10;83.70;;;;;;4974494;28;20033;-63
2023/09/18 01:19:39;;;;;;;4.40;4.00;;;19.10;83.40;;;;;;4963682;28;20047;-63
2023/09/18 01:22:06;;;;;;;6.45;4.60;;;19.10;84.30;;;;;;4952714;28;20368;-64
2023/09/18 01:24:36;;;;;;;4.45;4.05;;;19.00;83.60;;;;;;4965159;28;20066;-63
2023/09/18 01:27:04;;;;;;;6.50;4.65;;;19.00;84.30;;;;;;4968825;28;20061;-64
2023/09/18 01:29:30;;;;;;;8.77;5.10;;;18.90;84.30;;;;;;4970878;28;20042;-63
2023/09/18 01:31:55;;;;;;;6.22;4.75;;;18.90;84.60;;;;;;4971499;28;20556;-63
2023/09/18 01:34:36;;;;;;;8.00;4.53;;;18.90;84.80;;;;;;4970168;28;20442;-63
2023/09/18 01:37:08;;;;;;;5.95;4.28;;;18.90;85.00;;;;;;4971537;28;20034;-64
2023/09/18 01:39:34;;;;;;;6.95;4.50;;;18.90;84.90;;;;;;4961427;28;20034;-63
2023/09/18 01:42:02;;;;;;;10.27;4.80;;;18.90;85.00;;;;;;4953598;28;20035;-63
2023/09/18 01:44:29;;;;;;;4.60;4.20;;;18.90;85.00;;;;;;4970245;28;20507;-63
2023/09/18 01:46:57;;;;;;;5.18;4.68;;;18.90;85.10;;;;;;4967337;28;20043;-63
2023/09/18 01:49:28;;;;;;;4.90;4.28;;;18.90;85.30;;;;;;4971938;28;20518;-63
2023/09/18 01:51:54;;;;;;;4.88;4.38;;;18.90;85.50;;;;;;4959535;28;20513;-63
2023/09/18 01:54:19;;;;;;;4.55;4.15;;;18.90;85.30;;;;;;4949855;28;20045;-63
2023/09/18 01:56:45;;;;;;;5.38;4.43;;;18.90;85.30;;;;;;4966992;28;20120;-63
2023/09/18 01:59:10;;;;;;;4.28;3.95;;;18.90;85.30;;;;;;4968477;28;20064;-63
2023/09/18 02:01:37;;;;;;;5.22;4.72;;;19.00;85.30;;;;;;4974848;28;20058;-63
2023/09/18 02:04:04;;;;;;;5.43;4.85;;;19.00;85.20;;;;;;4970766;28;20031;-63
2023/09/18 02:06:30;;;;;;;5.07;4.57;;;19.10;85.10;;;;;;4974153;28;20046;-64
2023/09/18 02:08:55;;;;;;;5.25;4.75;;;19.10;85.10;;;;;;4972969;28;20034;-63
2023/09/18 02:11:21;;;;;;;5.82;4.30;;;19.10;85.00;;;;;;4970816;28;20109;-64
2023/09/18 02:13:46;;;;;;;6.07;4.53;;;19.10;84.90;;;;;;4975329;28;20038;-63
2023/09/18 02:16:12;;;;;;;6.57;4.38;;;19.00;85.00;;;;;;4974714;28;20035;-63
2023/09/18 02:18:38;;;;;;;5.45;4.50;;;19.00;84.80;;;;;;4973161;28;20042;-63
2023/09/18 02:21:03;;;;;;;5.00;4.55;;;19.10;84.70;;;;;;4971700;28;20101;-63
2023/09/18 02:23:29;;;;;;;5.03;4.55;;;19.20;84.60;;;;;;4970914;28;20534;-62
2023/09/18 02:25:58;;;;;;;6.00;4.88;;;19.10;84.60;;;;;;4966683;28;20030;-62
2023/09/18 02:28:24;;;;;;;6.70;4.80;;;19.10;84.80;;;;;;4969313;28;20046;-63
2023/09/18 02:30:49;;;;;;;7.78;5.28;;;19.10;84.60;;;;;;4968932;28;20760;-63
2023/09/18 02:33:16;;;;;;;7.53;5.00;;;19.10;85.50;;;;;;4972094;28;20407;-63
2023/09/18 02:35:43;;;;;;;5.05;4.65;;;19.10;84.60;;;;;;4969437;28;20064;-63
2023/09/18 02:38:09;;;;;;;7.32;4.88;;;19.10;84.60;;;;;;4970350;28;20063;-63
2023/09/18 02:40:34;;;;;;;5.32;4.65;;;19.00;84.60;;;;;;4969618;28;20073;-63
2023/09/18 02:43:01;;;;;;;6.50;4.85;;;19.00;84.80;;;;;;4972013;28;20042;-63
2023/09/18 02:45:27;;;;;;;5.32;4.82;;;19.00;84.80;;;;;;4966562;28;20042;-63
2023/09/18 02:47:53;;;;;;;5.13;4.57;;;19.00;84.80;;;;;;4969932;28;20117;-63
2023/09/18 02:50:18;;;;;;;5.75;4.47;;;19.00;84.80;;;;;;4971194;28;20437;-63
2023/09/18 02:52:44;;;;;;;6.53;5.10;;;18.90;84.60;;;;;;4972040;28;20042;-63
2023/09/18 02:55:10;;;;;;;5.35;4.75;;;18.90;84.60;;;;;;4966558;28;20038;-63
2023/09/18 02:57:37;;;;;;;7.25;5.07;;;18.90;84.80;;;;;;4968979;28;20030;-62
2023/09/18 03:00:03;;;;;;;5.55;5.05;;;18.90;85.00;;;;;;4969886;28;20037;-63
2023/09/18 03:02:29;;;;;;;5.93;5.20;;;18.80;84.90;;;;;;4970570;28;20027;-63
2023/09/18 03:04:55;;;;;;;5.97;5.18;;;18.80;85.00;;;;;;4971935;28;20030;-63
2023/09/18 03:07:22;;;;;;;7.32;5.25;;;18.80;85.00;;;;;;4970469;28;20030;-63
2023/09/18 03:09:47;;;;;;;5.18;4.68;;;18.80;85.20;;;;;;4970435;28;20046;-63
2023/09/18 03:12:13;;;;;;;6.65;4.88;;;18.70;85.30;;;;;;4964477;28;20034;-63
2023/09/18 03:14:39;;;;;;;6.60;5.20;;;18.60;85.50;;;;;;4970714;28;20118;-63
2023/09/18 03:17:05;;;;;;;5.70;5.18;;;18.60;85.60;;;;;;4968114;28;20041;-63
2023/09/18 03:19:30;;;;;;;7.45;5.50;;;18.60;85.80;;;;;;4969088;28;20037;-63
2023/09/18 03:21:56;;;;;;;6.18;5.55;;;18.50;85.80;;;;;;4972683;28;20037;-63
2023/09/18 03:24:22;;;;;;;5.18;4.78;;;18.40;86.00;;;;;;4970182;28;20045;-63
2023/09/18 03:26:49;;;;;;;6.53;5.35;;;18.30;86.20;;;;;;4969461;28;20097;-63
2023/09/18 03:29:14;;;;;;;5.93;5.38;;;18.30;86.30;;;;;;4967025;28;20549;-62
2023/09/18 03:31:40;;;;;;;7.57;5.45;;;18.30;86.40;;;;;;4956046;28;20126;-63
2023/09/18 03:34:05;;;;;;;5.47;4.93;;;18.30;86.70;;;;;;4947924;28;20724;-63
2023/09/18 03:36:35;;;;;;;6.57;5.28;;;18.20;86.70;;;;;;4963217;28;20038;-63
2023/09/18 03:39:01;;;;;;;5.38;4.90;;;18.30;86.90;;;;;;4968131;28;20031;-63
2023/09/18 03:41:27;;;;;;;6.82;5.38;;;18.30;86.80;;;;;;4968681;28;20041;-63
2023/09/18 03:43:52;;;;;;;6.82;4.63;;;18.30;86.70;;;;;;4965460;28;20039;-63
2023/09/18 03:46:18;;;;;;;6.75;5.40;;;18.30;86.40;;;;;;4969572;28;20031;-63
2023/09/18 03:48:43;;;;;;;6.72;5.38;;;18.30;86.30;;;;;;4966718;28;21194;-63
2023/09/18 03:51:09;;;;;;;5.85;5.25;;;18.40;86.40;;;;;;4971256;28;20106;-63
2023/09/18 03:53:35;;;;;;;5.93;5.15;;;18.40;86.50;;;;;;4969694;28;20031;-64
2023/09/18 03:56:01;;;;;;;7.65;5.47;;;18.30;86.80;;;;;;4965395;28;20097;-63
2023/09/18 03:58:27;;;;;;;6.00;5.40;;;18.30;87.20;;;;;;4965975;28;20533;-62
2023/09/18 04:00:53;;;;;;;7.57;5.05;;;18.20;87.40;;;;;;4969506;28;20038;-63
2023/09/18 04:03:18;;;;;;;6.18;4.80;;;18.20;87.70;;;;;;4965343;28;20062;-63
2023/09/18 04:05:45;;;;;;;5.97;5.20;;;18.20;87.80;;;;;;4974497;28;20058;-63
2023/09/18 04:08:10;;;;;;;7.55;5.15;;;18.20;88.00;;;;;;4972677;28;20121;-63
2023/09/18 04:10:37;;;;;;;7.13;5.55;;;18.20;88.10;;;;;;4969672;28;20118;-63
2023/09/18 04:13:02;;;;;;;8.63;5.15;;;18.20;88.10;;;;;;4974422;28;20035;-63
2023/09/18 04:15:32;;;;;;;6.47;5.78;;;18.20;88.30;;;;;;4976599;28;20046;-63
2023/09/18 04:17:58;;;;;;;7.07;6.38;;;18.20;88.50;;;;;;4974363;28;20026;-63
2023/09/18 04:20:24;;;;;;;7.35;6.60;;;18.20;88.70;;;;;;4967389;28;20031;-64
2023/09/18 04:23:18;;;;;;;7.18;6.00;;;18.20;89.30;;;;;;4970050;28;20041;-63
2023/09/18 04:25:45;;;;;;;7.20;6.18;;;18.20;90.10;;;;;;4972428;28;20035;-63
2023/09/18 04:28:12;;;;;;;6.97;6.28;;;18.20;89.10;;;;;;4971653;28;20035;-63
2023/09/18 04:30:38;;;;;;;7.85;6.60;;;18.10;89.10;;;;;;4973290;28;20034;-63
2023/09/18 04:33:03;;;;;;;7.15;6.05;;;18.10;89.20;;;;;;4974393;28;20039;-63
2023/09/18 04:35:31;;;;;;;6.60;5.88;;;18.10;89.30;;;;;;4973170;28;20041;-63
2023/09/18 04:37:58;;;;;;;9.63;6.88;;;18.10;89.50;;;;;;4975273;28;20031;-63
2023/09/18 04:40:24;;;;;;;8.00;6.40;;;18.10;89.50;;;;;;4976502;28;20573;-63
2023/09/18 04:42:50;;;;;;;6.60;5.90;;;18.10;89.70;;;;;;4973150;28;20034;-63
2023/09/18 04:45:16;;;;;;;8.80;6.50;;;18.10;89.60;;;;;;4976250;28;20040;-63
2023/09/18 04:47:41;;;;;;;9.13;6.28;;;18.10;89.70;;;;;;4975511;28;20577;-63
2023/09/18 04:50:09;;;;;;;8.80;6.47;;;18.10;89.70;;;;;;4974674;28;20050;-63
2023/09/18 04:52:35;;;;;;;7.60;6.53;;;18.10;89.70;;;;;;4956411;28;20398;-63
2023/09/18 04:55:01;;;;;;;8.48;6.38;;;18.10;89.60;;;;;;4957726;28;20584;-63
2023/09/18 04:57:27;;;;;;;9.48;6.30;;;18.10;89.70;;;;;;4976564;28;20047;-63
2023/09/18 04:59:52;;;;;;;7.82;5.95;;;18.10;89.60;;;;;;4975951;28;20467;-63
2023/09/18 05:02:18;;;;;;;7.40;6.60;;;18.20;89.50;;;;;;4974039;28;20118;-63
2023/09/18 05:04:44;;;;;;;6.70;6.07;;;18.30;89.30;;;;;;4957361;28;20035;-63
2023/09/18 05:07:09;;;;;;;6.78;6.07;;;18.30;89.20;;;;;;4959465;28;20096;-63
2023/09/18 05:09:35;;;;;;;7.63;6.82;;;18.30;89.90;;;;;;4976256;28;20089;-63
2023/09/18 05:12:03;;;;;;;9.43;6.15;;;18.30;88.80;;;;;;4962097;28;20031;-63
2023/09/18 05:14:29;;;;;;;6.57;5.85;;;18.40;88.70;;;;;;4956189;28;20066;-63
2023/09/18 05:16:54;;;;;;;6.95;6.20;;;18.40;88.60;;;;;;4973994;28;20486;-63
2023/09/18 05:19:20;;;;;;;11.32;6.70;;;18.60;88.60;;;;;;4977483;28;20052;-63
2023/09/18 05:21:46;;;;;;;7.22;6.50;;;18.50;88.30;;;;;;4977082;28;20057;-63
2023/09/18 05:24:12;;;;;;;7.30;6.28;;;18.50;88.20;;;;;;4961672;28;20045;-63
2023/09/18 05:26:37;;;;;;;11.27;6.50;;;18.50;88.10;;;;;;4958330;28;20446;-63
2023/09/18 05:29:03;;;;;;;7.85;5.72;;;18.50;87.90;;;;;;4976277;28;20066;-63
2023/09/18 05:31:28;;;;;;;8.05;6.47;;;18.50;87.90;;;;;;4974600;28;20042;-63
2023/09/18 05:33:54;;;;;;;6.70;6.10;;;18.60;88.00;;;;;;4975517;28;20070;-63
2023/09/18 05:36:19;;;;;;;9.40;6.05;;;18.50;87.80;;;;;;4973306;28;20038;-63
2023/09/18 05:38:45;;;;;;;7.82;6.22;;;18.60;87.90;;;;;;4975394;28;20501;-63
2023/09/18 05:41:10;;;;;;;9.07;6.60;;;18.60;87.90;;;;;;4975735;28;20035;-63
2023/09/18 05:43:36;;;;;;;7.93;6.70;;;18.60;87.80;;;;;;4974688;28;20117;-63
2023/09/18 05:46:02;;;;;;;9.65;6.97;;;18.60;87.90;;;;;;4974914;28;20042;-63
2023/09/18 05:48:28;;;;;;;8.15;6.55;;;18.60;88.10;;;;;;4974157;28;20039;-63
2023/09/18 05:50:54;;;;;;;10.23;6.50;;;18.50;88.20;;;;;;4975887;28;20027;-63
2023/09/18 05:53:20;;;;;;;10.00;6.63;;;18.50;88.40;;;;;;4975219;28;20035;-63
2023/09/18 05:55:45;;;;;;;8.18;6.70;;;18.60;88.60;;;;;;4975184;28;20030;-63
2023/09/18 05:58:11;;;;;;;6.85;6.15;;;18.60;88.80;;;;;;4975913;28;20057;-63
2023/09/18 06:00:37;;;;;;;8.50;6.25;;;18.60;89.00;;;;;;4975257;28;20699;-63
2023/09/18 06:03:05;;;;;;;7.57;6.18;;;18.70;89.20;;;;;;4975830;28;20035;-63
2023/09/18 06:05:31;;;;;;;8.48;6.68;;;18.80;89.20;;;;;;4975822;28;20026;-63
2023/09/18 06:07:57;;;;;;;7.63;6.18;;;18.80;89.30;;;;;;4976462;28;20114;-63
2023/09/18 06:10:22;;;;;;;8.98;6.20;;;18.80;89.30;;;;;;4975479;28;20459;-63
2023/09/18 06:12:48;;;;;;;8.63;6.00;;;18.90;89.30;;;;;;4972034;28;20039;-63
2023/09/18 06:15:14;;;;;;;10.63;6.28;;;19.00;89.30;;;;;;4957803;28;20595;-62
2023/09/18 06:17:42;;;;;;;6.97;6.22;;;19.00;89.30;;;;;;4958890;28;20414;-63
2023/09/18 06:20:09;;;;;;;7.65;6.32;;;19.10;89.40;;;;;;4955877;28;20035;-63
2023/09/18 06:22:42;;;;;;;9.65;5.68;;;19.20;89.40;;;;;;4956057;28;20043;-63
2023/09/18 06:25:12;;;;;;;7.88;5.57;;;19.20;89.30;;;;;;4956350;28;20051;-63
2023/09/18 06:27:38;;;;;;;7.15;5.43;;;19.30;89.20;;;;;;4962036;28;20045;-64
2023/09/18 06:30:05;;;;;;;6.72;5.20;;;19.40;89.00;;;;;;4974533;28;20039;-63
2023/09/18 06:32:31;;;;;;;5.82;5.22;;;19.40;88.80;;;;;;4973200;28;20039;-63
2023/09/18 06:34:57;;;;;;;10.07;5.32;;;19.40;88.60;;;;;;4973467;28;20083;-63
2023/09/18 06:37:23;;;;;;;8.45;5.72;;;19.50;88.60;;;;;;4971363;28;20455;-63
2023/09/18 06:39:49;;;;;;;12.65;5.05;;;19.50;88.60;;;;;;4974731;28;20116;-63
2023/09/18 06:42:14;;;;;;;11.52;5.93;;;19.50;88.60;;;;;;4974061;28;20366;-63
2023/09/18 06:44:41;;;;;;;10.52;5.78;;;19.60;88.60;;;;;;4973542;28;20038;-63
2023/09/18 06:47:06;;;;;;;10.68;5.47;;;19.60;88.50;;;;;;4976219;28;20551;-63
2023/09/18 06:49:32;;;;;;;9.55;5.13;;;19.70;88.50;;;;;;4974839;28;20133;-63
2023/09/18 06:51:58;;;;;;;9.90;5.95;;;19.70;88.50;;;;;;4973016;28;20039;-63
2023/09/18 06:54:24;;;;;;;12.38;5.63;;;19.80;88.40;;;;;;4970901;28;20046;-63
2023/09/18 06:56:50;;;;;;;11.98;6.00;;;19.80;88.30;;;;;;4953971;28;20467;-63
2023/09/18 06:59:16;;;;;;;12.20;5.38;;;19.90;88.10;;;;;;4962625;28;20093;-63
2023/09/18 07:01:42;;;;;;;17.05;5.82;;;20.00;88.10;;;;;;4975445;28;20034;-63
2023/09/18 07:04:08;;;;;;;8.25;5.05;;;20.00;88.10;;;;;;4976536;28;20530;-63
2023/09/18 07:06:34;;;;;;;10.18;4.57;;;20.10;88.00;;;;;;4975102;28;20034;-63
2023/09/18 07:08:59;;;;;;;10.38;5.22;;;20.10;87.80;;;;;;4972508;28;20804;-63
2023/09/18 07:11:25;;;;;;;11.10;4.97;;;20.20;87.70;;;;;;4971508;28;20038;-63
2023/09/18 07:13:51;;;;;;;9.65;4.78;;;20.30;87.70;;;;;;4975384;28;20489;-63
2023/09/18 07:16:16;;;;;;;13.75;5.00;;;20.30;87.60;;;;;;4975535;28;20038;-63
2023/09/18 07:18:42;;;;;;;10.48;3.97;;;20.40;87.50;;;;;;4974715;28;20462;-63
2023/09/18 07:21:08;;;;;;;11.02;4.25;;;20.40;87.30;;;;;;4972690;28;20110;-63
2023/09/18 07:23:36;;;;;;;10.40;4.10;;;20.50;87.10;;;;;;4972217;28;20162;-63
2023/09/18 07:26:02;;;;;;;12.50;3.63;;;20.50;86.80;;;;;;4972295;28;20045;-63
2023/09/18 07:28:28;;;;;;;8.07;3.67;;;20.50;86.60;;;;;;4971901;28;20043;-63
2023/09/18 07:30:53;;;;;;;10.30;3.70;;;20.60;86.40;;;;;;4975765;28;20030;-63
2023/09/18 07:33:19;;;;;;;10.23;3.55;;;20.70;86.20;;;;;;4974192;28;20039;-63
2023/09/18 07:35:51;;;;;;;8.52;3.30;;;20.70;85.90;;;;;;4975566;28;20065;-63
2023/09/18 07:38:18;;;;;;;12.57;3.55;;;20.70;85.60;;;;;;4975071;28;20038;-63
2023/09/18 07:40:45;;;;;;;16.15;3.22;;;20.80;85.50;;;;;;4976139;28;20172;-63
2023/09/18 07:43:11;;;;;;;7.75;3.47;;;20.80;85.30;;;;;;4975991;28;20092;-63
2023/09/18 07:45:39;;;;;;;11.65;3.50;;;20.80;85.00;;;;;;4973836;28;20035;-63
2023/09/18 07:48:08;;;;;;;9.95;3.65;;;20.80;84.80;;;;;;4976017;28;20031;-63
2023/09/18 07:50:37;;;;;;;8.30;3.15;;;20.90;84.80;;;;;;4977351;28;20035;-63
2023/09/18 07:53:03;;;;;;;8.60;3.00;;;20.90;84.60;;;;;;4977016;28;20038;-63
2023/09/18 07:55:29;;;;;;;9.68;2.85;;;20.90;84.60;;;;;;4978011;28;20528;-63
2023/09/18 07:57:55;;;;;;;9.60;3.40;;;20.90;84.50;;;;;;4976964;28;20125;-63
2023/09/18 08:00:22;;;;;;;16.48;2.97;;;20.90;84.50;;;;;;4976930;28;20042;-63
2023/09/18 08:02:49;;;;;;;12.43;3.28;;;20.90;84.50;;;;;;4970087;28;20573;-63
2023/09/18 08:05:16;;;;;;;7.68;2.60;;;20.90;84.50;;;;;;4958243;28;20428;-63
2023/09/18 08:07:42;;;;;;;6.20;2.90;;;20.90;84.50;;;;;;4969382;28;20031;-63
2023/09/18 08:10:08;;;;;;;9.05;2.85;;;20.90;84.40;;;;;;4978966;28;20050;-63
2023/09/18 08:12:35;;;;;;;4.20;2.60;;;21.00;84.50;;;;;;4977212;28;20042;-63
2023/09/18 08:15:01;;;;;;;7.60;2.90;;;21.00;84.30;;;;;;4980651;28;20109;-63
2023/09/18 08:17:27;;;;;;;7.07;2.60;;;21.10;84.40;;;;;;4980168;28;20509;-63
2023/09/18 08:19:53;;;;;;;7.95;2.90;;;21.10;84.20;;;;;;4978390;28;20045;-63
2023/09/18 08:22:20;;;;;;;9.93;2.55;;;21.10;84.30;;;;;;4976162;28;20034;-63
2023/09/18 08:24:47;;;;;;;6.75;2.88;;;21.20;84.40;;;;;;4975751;28;20043;-63
2023/09/18 08:27:16;;;;;;;5.35;2.75;;;21.20;84.30;;;;;;4977081;28;20042;-63
2023/09/18 08:29:42;;;;;;;5.90;2.50;;;21.30;84.40;;;;;;4978090;28;20069;-63
2023/09/18 08:32:08;;;;;;;5.35;2.70;;;21.30;84.20;;;;;;4978342;28;20278;-63
2023/09/18 08:34:33;;;;;;;5.35;2.67;;;21.40;84.00;;;;;;4977282;28;20411;-63
2023/09/18 08:36:59;;;;;;;4.97;2.67;;;21.40;84.00;;;;;;4978372;28;20034;-63
2023/09/18 08:39:25;;;;;;;8.95;2.42;;;21.50;84.00;;;;;;4978889;28;20058;-63
2023/09/18 08:41:54;;;;;;;7.38;2.72;;;21.50;83.80;;;;;;4976994;28;20062;-63
2023/09/18 08:44:23;;;;;;;7.82;2.53;;;21.60;83.70;;;;;;4976613;28;20469;-63
2023/09/18 08:46:49;;;;;;;8.65;2.45;;;21.60;83.60;;;;;;4979037;28;20042;-64
2023/09/18 08:49:15;;;;;;;7.25;2.22;;;21.70;83.30;;;;;;4976775;28;20043;-63
2023/09/18 08:51:43;;;;;;;4.35;2.20;;;21.80;83.30;;;;;;4979422;28;20046;-64
2023/09/18 08:54:09;;;;;;;5.82;2.33;;;21.80;83.00;;;;;;4977292;28;20511;-64
2023/09/18 08:56:35;;;;;;;7.55;2.30;;;21.90;82.70;;;;;;4978319;28;20038;-62
2023/09/18 08:59:01;;;;;;;10.05;2.65;;;22.00;82.70;;;;;;4977164;28;20034;-63
2023/09/18 09:01:26;;;;;;;8.52;2.55;;;22.00;82.60;;;;;;4978491;28;20045;-63
2023/09/18 09:03:52;;;;;;;8.13;2.30;;;22.10;82.30;;;;;;4977897;28;20347;-63
2023/09/18 09:06:18;;;;;;;10.57;2.53;;;22.20;82.20;;;;;;4977357;28;20046;-63
2023/09/18 09:08:43;;;;;;;6.25;1.98;;;22.20;81.70;;;;;;4976926;28;20039;-63
2023/09/18 09:11:09;;;;;;;8.82;1.80;;;22.30;81.20;;;;;;4975109;28;20034;-63
2023/09/18 09:13:35;;;;;;;8.27;1.83;;;22.30;80.70;;;;;;4977619;28;20030;-63
2023/09/18 09:16:00;;;;;;;12.00;1.88;;;22.40;80.30;;;;;;4977166;28;20030;-63
2023/09/18 09:18:28;;;;;;;14.80;2.08;;;22.50;80.60;;;;;;4977542;28;20076;-64
2023/09/18 09:20:59;;;;;;;5.57;1.58;;;22.50;79.80;;;;;;4976167;28;20038;-64
2023/09/18 09:23:29;;;;;;;10.48;1.80;;;22.50;79.30;;;;;;4975982;28;20050;-63
2023/09/18 09:26:16;;;;;;;7.75;1.55;;;22.50;79.10;;;;;;4975858;28;20039;-63
2023/09/18 09:28:44;;;;;;;8.88;1.65;;;22.60;78.30;;;;;;4977004;28;20089;-63
2023/09/18 09:31:13;;;;;;;10.00;1.73;;;22.60;78.40;;;;;;4971741;28;20043;-63
2023/09/18 09:33:53;;;;;;;8.20;1.45;;;22.60;78.00;;;;;;4965708;28;20137;-64
2023/09/18 09:36:19;;;;;;;6.25;1.40;;;22.70;77.20;;;;;;4962305;28;20062;-63
2023/09/18 09:38:45;;;;;;;4.68;1.25;;;22.60;77.50;;;;;;4960130;28;21271;-63
2023/09/18 09:41:14;;;;;;;4.68;1.42;;;22.60;77.30;;;;;;4976658;28;20493;-63
2023/09/18 09:43:42;;;;;;;13.50;1.52;;;22.60;76.60;;;;;;4975482;28;20458;-63
2023/09/18 09:46:18;;;;;;;9.98;1.80;;;22.60;77.00;;;;;;4976689;28;20097;-63
2023/09/18 09:49:03;;;;;;;3.33;1.20;;;22.60;76.60;;;;;;4975820;28;20121;-63
2023/09/18 09:51:31;;;;;;;5.40;1.30;;;22.50;76.40;;;;;;4977585;28;20042;-63
2023/09/18 09:53:59;;;;;;;4.88;1.40;;;22.50;76.90;;;;;;4976620;28;20030;-63
2023/09/18 09:56:48;;;;;;;4.90;1.40;;;22.50;76.80;;;;;;4976967;28;20030;-63
2023/09/18 09:59:15;;;;;;;4.43;1.25;;;22.40;76.90;;;;;;4976430;28;20042;-63
2023/09/18 10:01:41;;;;;;;4.03;1.38;;;22.40;77.50;;;;;;4966242;28;20032;-63
2023/09/18 10:04:13;;;;;;;7.47;1.30;;;22.30;77.90;;;;;;4971553;28;20078;-63
2023/09/18 10:06:43;;;;;;;3.88;1.35;;;22.20;78.40;;;;;;4978852;28;20117;-63
2023/09/18 10:09:11;;;;;;;5.30;1.20;;;22.10;78.70;;;;;;4978487;28;20043;-63
2023/09/18 10:11:51;;;;;;;2.92;1.00;;;22.00;79.80;;;;;;4974835;28;20122;-63
2023/09/18 10:14:19;;;;;;;6.50;1.27;;;21.90;80.00;;;;;;4978177;28;20598;-63
2023/09/18 10:16:55;;;;;;;6.97;1.60;;;21.80;79.80;;;;;;4978351;28;20031;-64
2023/09/18 10:19:45;;;;;;;4.38;1.10;;;21.70;80.60;;;;;;4975680;28;20034;-63
2023/09/18 10:22:26;;;;;;;2.10;1.02;;;21.60;80.40;;;;;;4975061;28;20037;-63
2023/09/18 10:25:00;;;;;;;1.45;0.93;;;21.50;80.70;;;;;;4975733;28;20034;-64
2023/09/18 10:27:28;;;;;;;2.22;0.80;;;21.40;80.80;;;;;;4973507;28;20054;-64
2023/09/18 10:29:54;;;;;;;2.88;0.82;;;21.30;81.00;;;;;;4975346;28;20030;-64
2023/09/18 10:32:21;;;;;;;4.60;1.13;;;21.20;81.20;;;;;;4974678;28;20043;-63
2023/09/18 10:34:48;;;;;;;3.25;0.98;;;21.00;81.60;;;;;;4974834;28;20050;-64
2023/09/18 10:37:15;;;;;;;2.20;0.65;;;20.90;82.00;;;;;;4973311;28;20038;-63
2023/09/18 10:39:43;;;;;;;3.85;0.70;;;20.80;82.40;;;;;;4976765;28;20078;-63
2023/09/18 10:42:10;;;;;;;3.13;0.70;;;20.70;82.60;;;;;;4977153;28;20614;-64
2023/09/18 10:44:36;;;;;;;3.63;0.85;;;20.60;82.70;;;;;;4974189;28;20038;-63
2023/09/18 10:47:05;;;;;;;5.20;1.02;;;20.60;83.10;;;;;;4976049;28;20027;-63
2023/09/18 10:49:31;;;;;;;4.53;0.85;;;20.50;83.70;;;;;;4976724;28;20101;-64
2023/09/18 10:51:58;;;;;;;7.57;1.23;;;20.40;83.80;;;;;;4977590;28;20042;-64
2023/09/18 10:54:25;;;;;;;4.43;1.05;;;20.40;84.20;;;;;;4977040;28;20046;-63
2023/09/18 10:56:52;;;;;;;2.58;1.10;;;20.30;84.60;;;;;;4976051;28;20509;-63
2023/09/18 10:59:18;;;;;;;2.85;1.20;;;20.30;85.20;;;;;;4974933;28;20034;-64
2023/09/18 11:01:44;;;;;;;3.13;0.98;;;20.30;85.30;;;;;;4975781;28;20050;-64
2023/09/18 11:04:10;;;;;;;3.45;0.98;;;20.20;85.50;;;;;;4974324;28;20421;-64
2023/09/18 11:06:54;;;;;;;4.25;1.00;;;20.20;86.00;;;;;;4975608;28;20142;-64
2023/09/18 11:09:28;;;;;;;2.70;1.08;;;20.20;86.90;;;;;;4976880;28;20034;-64
2023/09/18 11:12:02;;;;;;;1.77;1.00;;;20.10;86.30;;;;;;4959376;28;20109;-64
2023/09/18 11:14:48;;;;;;;4.93;0.90;;;20.10;86.70;;;;;;4970896;28;20134;-63
2023/09/18 11:17:37;;;;;;;1.58;0.90;;;20.10;88.00;;;;;;4955992;28;20038;-64
2023/09/18 11:20:09;;;;;;;5.32;0.85;;;20.10;88.10;;;;;;4967437;28;20042;-64
2023/09/18 11:22:59;;;;;;;2.03;0.70;;;20.00;87.10;;;;;;4977785;28;20031;-63
2023/09/18 11:25:40;;;;;;;2.90;0.57;;;20.00;88.10;;;;;;4977496;28;20039;-64
2023/09/18 11:28:07;;;;;;;3.72;0.80;;;20.00;87.80;;;;;;4978950;28;20449;-64
2023/09/18 11:30:35;;;;;;;1.20;0.52;;;20.00;87.30;;;;;;4977513;28;20530;-64
2023/09/18 11:33:03;;;;;;;1.95;0.80;;;19.90;87.40;;;;;;4976761;28;20085;-63
2023/09/18 11:35:29;;;;;;;2.58;0.60;;;19.90;87.40;;;;;;4977826;28;20039;-64
2023/09/18 11:38:10;;;;;;;4.30;0.63;;;19.90;87.40;;;;;;4979531;28;20030;-64
2023/09/18 11:40:38;;;;;;;1.45;0.68;;;19.80;88.00;;;;;;4980079;28;20524;-63
2023/09/18 11:43:35;;;;;;;1.50;0.63;;;19.80;87.50;;;;;;4980365;28;20396;-63
2023/09/18 11:46:04;;;;;;;2.72;0.47;;;19.70;88.40;;;;;;4978642;28;20042;-63
2023/09/18 11:48:33;;;;;;;5.25;0.80;;;19.70;87.80;;;;;;4977046;28;20042;-62
2023/09/18 11:51:03;;;;;;;3.83;0.50;;;19.70;88.00;;;;;;4980080;28;20045;-62
2023/09/18 11:53:29;;;;;;;1.58;0.80;;;19.70;88.10;;;;;;4978493;28;20117;-64
2023/09/18 11:55:55;;;;;;;3.00;0.70;;;19.70;88.30;;;;;;4979169;28;20047;-63
2023/09/18 11:58:23;;;;;;;2.75;0.98;;;19.70;88.50;;;;;;4979111;28;20144;-63
2023/09/18 12:00:50;;;;;;;3.65;0.77;;;19.60;88.60;;;;;;4960098;28;20259;-63
2023/09/18 12:03:26;;;;;;;1.20;0.65;;;19.60;88.90;;;;;;4957111;28;20534;-63
2023/09/18 12:06:05;;;;;;;1.48;0.60;;;19.60;88.90;;;;;;4960538;28;20035;-63
2023/09/18 12:08:31;;;;;;;3.22;0.73;;;19.60;89.50;;;;;;4977797;28;20471;-63
2023/09/18 12:10:58;;;;;;;2.97;0.77;;;19.60;88.90;;;;;;4977132;28;20065;-63
2023/09/18 12:13:27;;;;;;;2.72;0.73;;;19.50;89.00;;;;;;4980891;28;20094;-64
2023/09/18 12:16:01;;;;;;;1.10;0.55;;;19.50;89.20;;;;;;4981174;28;20026;-64
2023/09/18 12:18:28;;;;;;;3.03;0.75;;;19.50;90.10;;;;;;4979746;28;20038;-64
2023/09/18 12:20:55;;;;;;;2.25;0.73;;;19.50;89.30;;;;;;4979945;28;20081;-64
2023/09/18 12:23:22;;;;;;;3.03;1.23;;;19.50;89.30;;;;;;4978741;28;20031;-64
2023/09/18 12:25:56;;;;;;;1.85;0.95;;;19.50;89.30;;;;;;4978886;28;20105;-64
2023/09/18 12:28:22;;;;;;;2.10;1.10;;;19.40;89.70;;;;;;4978087;28;20030;-63
2023/09/18 12:30:50;;;;;;;1.63;0.95;;;19.40;89.70;;;;;;4982351;28;20039;-63
2023/09/18 12:33:17;;;;;;;2.30;1.23;;;19.50;90.00;;;;;;4975835;28;20030;-63
2023/09/18 12:35:42;;;;;;;3.92;1.10;;;19.40;90.00;;;;;;4977470;28;20034;-63
2023/09/18 12:38:15;;;;;;;2.00;1.00;;;19.40;90.10;;;;;;4976983;28;20047;-63
2023/09/18 12:40:41;;;;;;;3.90;1.10;;;19.40;90.30;;;;;;4976943;28;20062;-63
2023/09/18 12:43:07;;;;;;;2.17;1.17;;;19.40;90.10;;;;;;4977792;28;20528;-63
2023/09/18 12:45:34;;;;;;;2.05;1.30;;;19.40;90.20;;;;;;4977840;28;20042;-63
2023/09/18 12:48:01;;;;;;;1.75;1.10;;;19.50;90.30;;;;;;4978446;28;20049;-63